createdAt,value
2017-08-17T00:00:10.007Z,17.80
2017-08-17T00:02:38.298Z,17.60
2017-08-17T00:05:05.842Z,17.60
2017-08-17T00:07:34.118Z,17.60
2017-08-17T00:10:02.388Z,17.60
2017-08-17T00:12:30.684Z,17.60
2017-08-17T00:14:58.202Z,17.50
2017-08-17T00:17:25.714Z,17.50
2017-08-17T00:19:53.284Z,17.50
2017-08-17T00:22:20.784Z,17.50
2017-08-17T00:24:48.404Z,17.50
2017-08-17T00:27:15.928Z,17.50
2017-08-17T00:29:44.208Z,17.40
2017-08-17T00:32:12.480Z,17.30
2017-08-17T00:34:40.794Z,17.20
2017-08-17T00:37:08.288Z,17.20
2017-08-17T00:39:35.789Z,17.20
2017-08-17T00:42:03.307Z,17.10
2017-08-17T00:44:30.826Z,17.10
2017-08-17T00:46:58.323Z,17.00
2017-08-17T00:49:25.851Z,17.00
2017-08-17T00:51:53.366Z,16.90
2017-08-17T00:54:21.641Z,16.80
2017-08-17T00:56:49.949Z,16.70
2017-08-17T00:59:17.462Z,16.70
2017-08-17T01:01:45.732Z,16.70
2017-08-17T01:04:13.269Z,16.70
2017-08-17T01:06:40.790Z,16.70
2017-08-17T01:09:08.293Z,16.60
2017-08-17T01:11:35.828Z,16.60
2017-08-17T01:14:03.328Z,16.60
2017-08-17T01:16:30.851Z,16.60
2017-08-17T01:18:58.371Z,16.60
2017-08-17T01:21:25.892Z,16.60
2017-08-17T01:23:53.395Z,16.60
2017-08-17T01:26:20.928Z,16.60
2017-08-17T01:28:49.218Z,16.60
2017-08-17T01:31:16.732Z,16.60
2017-08-17T01:33:45.075Z,16.60
2017-08-17T01:36:12.580Z,16.50
2017-08-17T01:38:40.195Z,16.50
2017-08-17T01:41:07.719Z,16.50
2017-08-17T01:43:36.029Z,16.40
2017-08-17T01:46:03.592Z,16.40
2017-08-17T01:48:31.120Z,16.40
2017-08-17T01:50:59.379Z,16.30
2017-08-17T01:53:27.653Z,16.30
2017-08-17T01:55:55.190Z,16.20
2017-08-17T01:58:22.704Z,16.20
2017-08-17T02:00:50.203Z,16.20
2017-08-17T02:03:17.749Z,16.10
2017-08-17T02:05:45.270Z,16.10
2017-08-17T02:08:12.771Z,16.10
2017-08-17T02:10:40.314Z,16.00
2017-08-17T02:13:07.838Z,16.00
2017-08-17T02:15:36.142Z,15.80
2017-08-17T02:18:03.671Z,15.80
2017-08-17T02:20:31.960Z,15.70
2017-08-17T02:22:59.468Z,15.70
2017-08-17T02:25:27.022Z,15.70
2017-08-17T02:27:54.554Z,15.60
2017-08-17T02:30:22.051Z,15.60
2017-08-17T02:32:49.576Z,15.60
2017-08-17T02:35:17.085Z,15.50
2017-08-17T02:37:45.369Z,15.40
2017-08-17T02:40:13.666Z,15.40
2017-08-17T02:42:41.186Z,15.40
2017-08-17T02:45:08.702Z,15.40
2017-08-17T02:47:36.556Z,15.30
2017-08-17T02:50:04.078Z,15.30
2017-08-17T02:52:32.366Z,15.20
2017-08-17T02:55:00.779Z,15.20
2017-08-17T02:57:28.280Z,15.20
2017-08-17T02:59:55.784Z,15.20
2017-08-17T03:02:23.375Z,15.20
2017-08-17T03:04:50.887Z,15.30
2017-08-17T03:07:18.410Z,15.30
2017-08-17T03:09:46.242Z,15.30
2017-08-17T03:12:13.765Z,15.20
2017-08-17T03:14:42.046Z,15.20
2017-08-17T03:17:09.576Z,15.20
2017-08-17T03:19:37.075Z,15.20
2017-08-17T03:22:04.589Z,15.10
2017-08-17T03:24:32.138Z,15.10
2017-08-17T03:26:59.658Z,15.00
2017-08-17T03:29:27.211Z,15.00
2017-08-17T03:31:54.755Z,14.90
2017-08-17T03:34:22.272Z,14.90
2017-08-17T03:36:49.784Z,14.80
2017-08-17T03:39:17.353Z,14.80
2017-08-17T03:41:44.866Z,14.70
2017-08-17T03:44:12.388Z,14.70
2017-08-17T03:46:39.934Z,14.60
2017-08-17T03:49:07.451Z,14.60
2017-08-17T03:51:35.720Z,14.40
2017-08-17T03:54:04.025Z,14.40
2017-08-17T03:56:31.529Z,14.40
2017-08-17T03:58:59.056Z,14.40
2017-08-17T04:01:26.598Z,14.30
2017-08-17T04:03:54.103Z,14.30
2017-08-17T04:06:21.611Z,14.30
2017-08-17T04:08:49.154Z,14.30
2017-08-17T04:11:17.450Z,14.30
2017-08-17T04:13:44.956Z,14.30
2017-08-17T04:16:12.492Z,14.40
2017-08-17T04:18:40.010Z,14.40
2017-08-17T04:21:08.284Z,14.40
2017-08-17T04:23:36.575Z,14.40
2017-08-17T04:26:04.083Z,14.40
2017-08-17T04:28:31.609Z,14.40
2017-08-17T04:30:59.150Z,14.40
2017-08-17T04:33:26.667Z,14.60
2017-08-17T04:35:54.189Z,14.70
2017-08-17T04:38:21.718Z,14.90
2017-08-17T04:40:50.013Z,15.40
2017-08-17T04:43:17.531Z,15.40
2017-08-17T04:45:45.061Z,15.60
2017-08-17T04:48:12.574Z,15.80
2017-08-17T04:50:40.098Z,15.90
2017-08-17T04:53:07.714Z,16.10
2017-08-17T04:55:35.216Z,16.30
2017-08-17T04:58:21.581Z,16.50
2017-08-17T05:00:49.095Z,16.60
2017-08-17T05:03:17.365Z,16.80
2017-08-17T05:05:45.676Z,16.70
2017-08-17T05:08:13.188Z,16.60
2017-08-17T05:10:40.706Z,16.50
2017-08-17T05:13:08.246Z,16.40
2017-08-17T05:15:35.908Z,16.30
2017-08-17T05:18:03.481Z,16.30
2017-08-17T05:20:31.012Z,16.30
2017-08-17T05:22:58.599Z,16.30
2017-08-17T05:25:26.118Z,16.40
2017-08-17T05:27:54.411Z,16.80
2017-08-17T05:30:21.918Z,16.80
2017-08-17T05:32:49.420Z,17.00
2017-08-17T05:35:17.724Z,17.30
2017-08-17T05:37:45.224Z,17.30
2017-08-17T05:40:12.756Z,17.50
2017-08-17T05:42:40.304Z,17.70
2017-08-17T05:45:07.824Z,18.00
2017-08-17T05:47:36.137Z,18.50
2017-08-17T05:50:03.680Z,18.50
2017-08-17T05:52:31.179Z,18.70
2017-08-17T05:54:58.675Z,18.80
2017-08-17T05:57:26.982Z,19.20
2017-08-17T05:59:54.493Z,19.20
2017-08-17T06:02:22.010Z,19.40
2017-08-17T06:04:49.554Z,19.50
2017-08-17T06:07:17.066Z,19.70
2017-08-17T06:09:44.563Z,19.80
2017-08-17T06:12:12.102Z,20.00
2017-08-17T06:14:40.394Z,20.40
2017-08-17T06:17:07.892Z,20.40
2017-08-17T06:19:35.426Z,20.70
2017-08-17T06:22:02.933Z,20.80
2017-08-17T06:24:30.427Z,20.90
2017-08-17T06:26:57.948Z,20.90
2017-08-17T06:29:25.439Z,21.00
2017-08-17T06:31:52.931Z,21.30
2017-08-17T06:34:20.469Z,21.70
2017-08-17T06:36:48.011Z,21.70
2017-08-17T06:39:15.524Z,21.90
2017-08-17T06:41:43.051Z,21.90
2017-08-17T06:44:10.563Z,21.80
2017-08-17T06:46:38.082Z,21.70
2017-08-17T06:49:05.621Z,21.70
2017-08-17T06:51:33.188Z,21.70
2017-08-17T06:54:00.712Z,22.00
2017-08-17T06:56:28.254Z,22.40
2017-08-17T06:58:55.825Z,22.70
2017-08-17T07:01:24.087Z,23.10
2017-08-17T07:03:51.697Z,23.10
2017-08-17T07:06:19.239Z,23.50
2017-08-17T07:08:46.750Z,23.70
2017-08-17T07:11:14.290Z,23.80
2017-08-17T07:13:41.807Z,23.70
2017-08-17T07:16:09.391Z,23.70
2017-08-17T07:18:36.925Z,23.60
2017-08-17T07:21:04.462Z,23.80
2017-08-17T07:23:31.970Z,24.00
2017-08-17T07:25:59.502Z,24.30
2017-08-17T07:28:27.014Z,24.60
2017-08-17T07:30:54.540Z,25.50
2017-08-17T07:33:22.088Z,25.90
2017-08-17T07:35:49.661Z,26.30
2017-08-17T07:38:17.174Z,26.40
2017-08-17T07:40:45.474Z,27.00
2017-08-17T07:43:13.000Z,27.00
2017-08-17T07:45:40.510Z,27.00
2017-08-17T07:48:08.050Z,27.10
2017-08-17T07:50:35.629Z,27.20
2017-08-17T07:53:03.128Z,26.80
2017-08-17T07:55:31.579Z,26.50
2017-08-17T07:57:59.096Z,26.70
2017-08-17T08:00:27.360Z,27.40
2017-08-17T08:02:55.664Z,28.00
2017-08-17T08:05:23.210Z,28.00
2017-08-17T08:07:50.713Z,28.00
2017-08-17T08:10:18.233Z,28.10
2017-08-17T08:12:45.732Z,29.10
2017-08-17T08:15:13.232Z,29.20
2017-08-17T08:17:41.543Z,29.10
2017-08-17T08:20:09.041Z,29.10
2017-08-17T08:22:36.565Z,29.10
2017-08-17T08:25:04.103Z,29.50
2017-08-17T08:27:31.679Z,29.80
2017-08-17T08:29:59.199Z,29.90
2017-08-17T08:32:27.506Z,29.60
2017-08-17T08:34:55.075Z,29.60
2017-08-17T08:37:22.572Z,28.90
2017-08-17T08:39:50.193Z,28.50
2017-08-17T08:42:17.687Z,28.40
2017-08-17T08:44:45.226Z,27.80
2017-08-17T08:47:12.767Z,27.60
2017-08-17T08:49:40.274Z,27.40
2017-08-17T08:52:07.768Z,27.30
2017-08-17T08:54:35.296Z,27.30
2017-08-17T08:57:03.574Z,28.10
2017-08-17T08:59:31.846Z,29.00
2017-08-17T09:02:00.170Z,29.50
2017-08-17T09:04:27.663Z,29.50
2017-08-17T09:06:55.175Z,30.10
2017-08-17T09:09:22.704Z,30.50
2017-08-17T09:11:51.002Z,30.60
2017-08-17T09:14:18.514Z,30.60
2017-08-17T09:16:46.140Z,31.10
2017-08-17T09:19:13.631Z,31.60
2017-08-17T09:21:41.123Z,32.20
2017-08-17T09:24:09.408Z,30.40
2017-08-17T09:26:36.926Z,30.30
2017-08-17T09:29:04.446Z,30.30
2017-08-17T09:31:31.983Z,30.80
2017-08-17T09:33:59.500Z,30.90
2017-08-17T09:36:27.000Z,30.80
2017-08-17T09:38:54.515Z,30.20
2017-08-17T09:41:22.038Z,30.00
2017-08-17T09:43:49.550Z,29.40
2017-08-17T09:46:17.831Z,28.90
2017-08-17T09:48:46.119Z,28.70
2017-08-17T09:51:14.398Z,28.90
2017-08-17T09:53:42.698Z,28.70
2017-08-17T09:56:10.259Z,28.70
2017-08-17T09:58:37.752Z,28.50
2017-08-17T10:01:05.380Z,28.50
2017-08-17T10:03:32.881Z,28.90
2017-08-17T10:06:00.389Z,29.50
2017-08-17T10:08:28.058Z,29.60
2017-08-17T10:10:55.570Z,29.50
2017-08-17T10:13:23.890Z,29.50
2017-08-17T10:15:51.421Z,29.50
2017-08-17T10:18:19.727Z,29.80
2017-08-17T10:20:47.237Z,29.80
2017-08-17T10:23:14.751Z,29.70
2017-08-17T10:25:42.266Z,29.80
2017-08-17T10:28:10.546Z,30.10
2017-08-17T10:30:38.846Z,30.70
2017-08-17T10:33:06.344Z,30.60
2017-08-17T10:35:33.844Z,30.90
2017-08-17T10:38:01.373Z,30.70
2017-08-17T10:40:28.893Z,30.30
2017-08-17T10:42:56.394Z,29.40
2017-08-17T10:45:25.036Z,28.30
2017-08-17T10:47:52.535Z,28.30
2017-08-17T10:50:20.051Z,28.40
2017-08-17T10:52:47.571Z,28.30
2017-08-17T10:55:15.828Z,28.40
2017-08-17T10:57:43.354Z,28.30
2017-08-17T11:00:10.899Z,28.90
2017-08-17T11:02:38.405Z,29.20
2017-08-17T11:05:05.913Z,28.90
2017-08-17T11:07:33.473Z,28.90
2017-08-17T11:10:00.986Z,28.50
2017-08-17T11:12:29.258Z,28.10
2017-08-17T11:14:56.780Z,28.10
2017-08-17T11:17:24.295Z,27.40
2017-08-17T11:19:51.794Z,26.90
2017-08-17T11:22:19.316Z,26.70
2017-08-17T11:24:46.811Z,26.60
2017-08-17T11:27:14.322Z,26.70
2017-08-17T11:29:42.627Z,26.30
2017-08-17T11:32:10.128Z,26.30
2017-08-17T11:34:37.647Z,26.40
2017-08-17T11:37:05.173Z,26.30
2017-08-17T11:39:33.449Z,26.00
2017-08-17T11:42:01.719Z,26.00
2017-08-17T11:44:29.999Z,26.00
2017-08-17T11:46:58.260Z,25.90
2017-08-17T11:49:25.770Z,25.90
2017-08-17T11:51:53.301Z,25.90
2017-08-17T11:54:20.818Z,26.00
2017-08-17T11:56:48.325Z,26.20
2017-08-17T11:59:15.878Z,26.10
2017-08-17T12:01:43.390Z,26.10
2017-08-17T12:04:10.890Z,26.10
2017-08-17T12:06:38.416Z,26.20
2017-08-17T12:09:05.916Z,26.10
2017-08-17T12:11:33.411Z,26.00
2017-08-17T12:14:01.051Z,26.00
2017-08-17T12:16:28.543Z,25.90
2017-08-17T12:18:56.035Z,25.80
2017-08-17T12:21:24.446Z,25.90
2017-08-17T12:23:51.939Z,25.90
2017-08-17T12:26:19.458Z,26.00
2017-08-17T12:28:47.002Z,26.10
2017-08-17T12:31:14.513Z,26.10
2017-08-17T12:33:42.003Z,26.10
2017-08-17T12:36:10.322Z,26.00
2017-08-17T12:38:37.841Z,26.00
2017-08-17T12:41:06.126Z,25.90
2017-08-17T12:43:33.665Z,25.90
2017-08-17T12:46:01.933Z,26.20
2017-08-17T12:48:30.196Z,26.30
2017-08-17T12:50:57.712Z,26.30
2017-08-17T12:53:25.222Z,26.30
2017-08-17T12:55:52.734Z,26.50
2017-08-17T12:58:20.288Z,26.50
2017-08-17T13:00:47.788Z,26.60
2017-08-17T13:03:15.316Z,27.20
2017-08-17T13:05:42.851Z,27.90
2017-08-17T13:08:10.344Z,28.40
2017-08-17T13:10:37.863Z,28.60
2017-08-17T13:13:05.442Z,28.50
2017-08-17T13:15:32.954Z,28.30
2017-08-17T13:18:01.220Z,27.60
2017-08-17T13:23:17.895Z,27.40
2017-08-17T13:25:45.456Z,27.60
2017-08-17T13:28:12.955Z,27.40
2017-08-17T13:30:40.485Z,27.40
2017-08-17T13:33:08.034Z,26.90
2017-08-17T13:35:35.537Z,26.60
2017-08-17T13:38:03.055Z,26.30
2017-08-17T13:40:30.553Z,25.90
2017-08-17T13:42:58.063Z,25.70
2017-08-17T13:45:25.601Z,25.60
2017-08-17T13:47:53.099Z,25.50
2017-08-17T13:50:20.605Z,25.40
2017-08-17T13:52:48.894Z,25.30
2017-08-17T13:55:16.397Z,25.30
2017-08-17T13:57:43.895Z,25.50
2017-08-17T14:00:12.198Z,25.50
2017-08-17T14:02:39.766Z,25.40
2017-08-17T14:05:07.327Z,25.50
2017-08-17T14:07:34.874Z,25.60
2017-08-17T14:10:02.445Z,25.60
2017-08-17T14:12:29.963Z,25.80
2017-08-17T14:14:58.315Z,25.60
2017-08-17T14:17:25.833Z,25.60
2017-08-17T14:19:53.346Z,25.50
2017-08-17T14:22:22.495Z,24.90
2017-08-17T14:24:50.052Z,24.90
2017-08-17T14:27:17.548Z,24.50
2017-08-17T14:29:45.067Z,24.40
2017-08-17T14:32:12.594Z,24.10
2017-08-17T14:34:40.860Z,23.50
2017-08-17T14:37:09.158Z,23.30
2017-08-17T14:39:36.670Z,23.20
2017-08-17T14:42:04.299Z,23.20
2017-08-17T14:44:31.823Z,23.00
2017-08-17T14:47:00.083Z,23.00
2017-08-17T14:49:27.694Z,23.00
2017-08-17T14:51:55.238Z,23.00
2017-08-17T14:54:22.757Z,22.90
2017-08-17T14:56:50.372Z,22.90
2017-08-17T14:59:17.918Z,22.90
2017-08-17T15:01:45.442Z,22.80
2017-08-17T15:04:13.716Z,22.60
2017-08-17T15:06:41.325Z,22.60
2017-08-17T15:09:08.825Z,22.60
2017-08-17T15:11:36.319Z,22.60
2017-08-17T15:14:03.866Z,22.60
2017-08-17T15:16:32.141Z,22.60
2017-08-17T15:19:00.530Z,22.50
2017-08-17T15:21:28.057Z,22.50
2017-08-17T15:23:55.551Z,22.50
2017-08-17T15:26:23.079Z,22.60
2017-08-17T15:28:50.604Z,22.50
2017-08-17T15:31:18.146Z,22.50
2017-08-17T15:33:45.705Z,22.60
2017-08-17T15:36:13.268Z,22.50
2017-08-17T15:38:40.778Z,22.60
2017-08-17T15:41:09.059Z,22.60
2017-08-17T15:43:37.478Z,22.50
2017-08-17T15:46:05.003Z,22.50
2017-08-17T15:48:33.263Z,22.50
2017-08-17T15:51:00.785Z,22.50
2017-08-17T15:53:28.297Z,22.50
2017-08-17T15:55:56.579Z,22.20
2017-08-17T15:58:24.128Z,22.20
2017-08-17T16:00:52.403Z,22.20
2017-08-17T16:03:20.667Z,22.10
2017-08-17T16:05:48.208Z,22.10
2017-08-17T16:08:15.724Z,22.10
2017-08-17T16:10:43.290Z,22.10
2017-08-17T16:13:10.842Z,22.00
2017-08-17T16:15:38.340Z,21.90
2017-08-17T16:18:05.843Z,21.90
2017-08-17T16:20:33.384Z,21.90
2017-08-17T16:23:01.667Z,21.90
2017-08-17T16:25:29.942Z,21.90
2017-08-17T16:27:58.246Z,22.00
2017-08-17T16:30:25.966Z,22.00
2017-08-17T16:32:53.577Z,22.00
2017-08-17T16:35:21.929Z,22.10
2017-08-17T16:37:49.513Z,22.10
2017-08-17T16:40:17.102Z,22.10
2017-08-17T16:42:45.186Z,21.90
2017-08-17T16:47:34.523Z,21.80
2017-08-17T16:50:02.057Z,21.70
2017-08-17T16:52:30.349Z,21.40
2017-08-17T16:54:57.924Z,21.40
2017-08-17T16:57:25.589Z,21.40
2017-08-17T16:59:54.016Z,21.20
2017-08-17T17:02:21.521Z,21.20
2017-08-17T17:04:49.032Z,21.10
2017-08-17T17:07:16.754Z,21.10
2017-08-17T17:09:44.294Z,21.10
2017-08-17T17:12:11.811Z,21.10
2017-08-17T17:14:40.135Z,21.00
2017-08-17T17:17:07.665Z,21.00
2017-08-17T17:19:35.186Z,21.00
2017-08-17T17:22:02.694Z,20.90
2017-08-17T17:24:30.230Z,20.90
2017-08-17T17:26:58.501Z,20.80
2017-08-17T17:29:26.778Z,20.80
2017-08-17T17:31:55.077Z,20.70
2017-08-17T17:34:22.571Z,20.70
2017-08-17T17:36:50.083Z,20.70
2017-08-17T17:39:18.377Z,20.60
2017-08-17T17:41:45.898Z,20.60
2017-08-17T17:44:13.429Z,20.60
2017-08-17T17:46:40.927Z,20.60
2017-08-17T17:49:09.229Z,20.60
2017-08-17T17:51:36.720Z,20.50
2017-08-17T17:54:04.235Z,20.50
2017-08-17T17:56:31.821Z,20.50
2017-08-17T17:58:59.315Z,20.50
2017-08-17T18:01:26.850Z,20.40
2017-08-17T18:03:54.361Z,20.40
2017-08-17T18:06:22.624Z,20.40
2017-08-17T18:08:50.913Z,20.40
2017-08-17T18:11:19.193Z,20.40
2017-08-17T18:13:46.714Z,20.30
2017-08-17T18:16:14.242Z,20.30
2017-08-17T18:18:41.779Z,20.30
2017-08-17T18:21:09.304Z,20.30
2017-08-17T18:23:36.795Z,20.20
2017-08-17T18:26:04.302Z,20.20
2017-08-17T18:28:31.835Z,20.20
2017-08-17T18:30:59.332Z,20.20
2017-08-17T18:33:26.855Z,20.20
2017-08-17T18:35:54.370Z,20.10
2017-08-17T18:38:21.977Z,20.10
2017-08-17T18:40:49.492Z,20.10
2017-08-17T18:43:17.774Z,20.00
2017-08-17T18:45:45.314Z,19.90
2017-08-17T18:48:13.602Z,19.90
2017-08-17T18:50:41.859Z,19.90
2017-08-17T18:53:09.379Z,19.90
2017-08-17T18:55:36.880Z,19.80
2017-08-17T18:58:04.402Z,19.80
2017-08-17T19:00:31.932Z,19.80
2017-08-17T19:02:59.447Z,19.70
2017-08-17T19:05:26.963Z,19.70
2017-08-17T19:07:54.502Z,19.70
2017-08-17T19:10:22.025Z,19.70
2017-08-17T19:12:49.515Z,19.60
2017-08-17T19:15:17.049Z,19.60
2017-08-17T19:17:45.334Z,19.50
2017-08-17T19:20:13.614Z,19.40
2017-08-17T19:22:41.899Z,19.40
2017-08-17T19:25:09.396Z,19.40
2017-08-17T19:27:36.906Z,19.40
2017-08-17T19:30:05.232Z,19.50
2017-08-17T19:32:32.751Z,19.40
2017-08-17T19:35:00.271Z,19.50
2017-08-17T19:37:27.787Z,19.40
2017-08-17T19:39:55.346Z,19.40
2017-08-17T19:42:22.882Z,19.40
2017-08-17T19:44:50.394Z,19.30
2017-08-17T19:47:17.910Z,19.30
2017-08-17T19:49:45.439Z,19.30
2017-08-17T19:52:13.758Z,19.30
2017-08-17T19:54:41.317Z,19.30
2017-08-17T19:57:08.827Z,19.30
2017-08-17T19:59:36.331Z,19.30
2017-08-17T20:02:03.856Z,19.30
2017-08-17T20:04:32.147Z,19.30
2017-08-17T20:06:59.645Z,19.30
2017-08-17T20:09:27.164Z,19.30
2017-08-17T20:11:54.677Z,19.30
2017-08-17T20:14:22.207Z,19.20
2017-08-17T20:16:49.721Z,19.20
2017-08-17T20:19:18.014Z,19.10
2017-08-17T20:21:45.571Z,19.10
2017-08-17T20:24:13.085Z,19.10
2017-08-17T20:26:40.582Z,19.00
2017-08-17T20:29:08.109Z,18.90
2017-08-17T20:31:35.730Z,18.80
2017-08-17T20:34:03.246Z,18.70
2017-08-17T20:36:31.540Z,18.50
2017-08-17T20:38:59.032Z,18.50
2017-08-17T20:41:26.531Z,18.40
2017-08-17T20:43:54.066Z,18.40
2017-08-17T20:46:21.594Z,18.30
2017-08-17T20:48:49.088Z,18.30
2017-08-17T20:51:16.716Z,18.20
2017-08-17T20:53:44.212Z,18.10
2017-08-17T20:56:11.728Z,18.00
2017-08-17T20:58:39.247Z,18.00
2017-08-17T21:01:07.508Z,18.00
2017-08-17T21:03:35.016Z,18.00
2017-08-17T21:06:02.535Z,18.00
2017-08-17T21:08:30.042Z,18.00
2017-08-17T21:10:57.535Z,18.00
2017-08-17T21:13:25.078Z,17.90
2017-08-17T21:15:52.590Z,17.90
2017-08-17T21:18:20.106Z,17.90
2017-08-17T21:20:47.636Z,17.80
2017-08-17T21:23:15.127Z,17.80
2017-08-17T21:25:42.634Z,17.70
2017-08-17T21:28:10.182Z,17.70
2017-08-17T21:30:37.692Z,17.60
2017-08-17T21:33:05.187Z,17.70
2017-08-17T21:35:33.488Z,17.70
2017-08-17T21:38:01.057Z,17.70
2017-08-17T21:40:28.551Z,17.70
2017-08-17T21:42:56.080Z,17.70
2017-08-17T21:45:23.594Z,17.60
2017-08-17T21:47:51.859Z,17.60
2017-08-17T21:50:19.468Z,17.60
2017-08-17T21:52:46.976Z,17.60
2017-08-17T21:55:14.517Z,17.50
2017-08-17T21:57:42.012Z,17.50
2017-08-17T22:00:10.290Z,17.50
2017-08-17T22:02:37.821Z,17.50
2017-08-17T22:05:05.320Z,17.50
2017-08-17T22:07:32.829Z,17.60
2017-08-17T22:10:00.359Z,17.50
2017-08-17T22:12:27.856Z,17.60
2017-08-17T22:14:55.396Z,17.70
2017-08-17T22:17:22.896Z,17.70
2017-08-17T22:19:51.180Z,17.80
2017-08-17T22:22:18.719Z,17.70
2017-08-17T22:24:47.011Z,17.80
2017-08-17T22:27:14.688Z,17.80
2017-08-17T22:29:42.208Z,17.80
2017-08-17T22:32:10.637Z,17.70
2017-08-17T22:34:38.154Z,17.70
2017-08-17T22:37:06.443Z,17.70
2017-08-17T22:39:33.979Z,17.70
2017-08-17T22:42:01.499Z,17.70
2017-08-17T22:44:29.043Z,17.70
2017-08-17T22:46:56.554Z,17.70
2017-08-17T22:49:24.080Z,17.70
2017-08-17T22:51:51.618Z,17.70
2017-08-17T22:54:19.117Z,17.60
2017-08-17T22:56:46.740Z,17.60
2017-08-17T22:59:14.239Z,17.50
2017-08-17T23:01:41.794Z,17.50
2017-08-17T23:04:09.301Z,17.50
2017-08-17T23:06:36.799Z,17.50
2017-08-17T23:09:04.328Z,17.50
2017-08-17T23:11:31.837Z,17.50
2017-08-17T23:13:59.361Z,17.50
2017-08-17T23:16:26.865Z,17.50
2017-08-17T23:18:55.124Z,17.50
2017-08-17T23:21:22.652Z,17.40
2017-08-17T23:23:50.166Z,17.50
2017-08-17T23:26:18.428Z,17.60
2017-08-17T23:28:46.715Z,17.70
2017-08-17T23:31:14.994Z,17.70
2017-08-17T23:33:43.270Z,17.70
2017-08-17T23:36:11.544Z,17.60
2017-08-17T23:38:39.818Z,17.50
2017-08-17T23:41:08.099Z,17.40
2017-08-17T23:43:36.355Z,17.40
2017-08-17T23:46:03.888Z,17.40
2017-08-17T23:48:31.379Z,17.40
2017-08-17T23:50:59.657Z,17.30
2017-08-17T23:53:27.958Z,17.30
2017-08-17T23:55:55.518Z,17.20
2017-08-17T23:58:23.011Z,17.20
